sensor_id;sensor_type;location;lat;lon;timestamp;temperature;humidity
7240;DHT22;3661;53.288;10.458;2023-10-08T00:00:02;11.20;99.90
7240;DHT22;3661;53.288;10.458;2023-10-08T00:02:55;11.20;99.90
7240;DHT22;3661;53.288;10.458;2023-10-08T00:05:28;11.20;99.90
7240;DHT22;3661;53.288;10.458;2023-10-08T00:08:01;11.20;99.90
7240;DHT22;3661;53.288;10.458;2023-10-08T00:10:36;11.20;99.90
7240;DHT22;3661;53.288;10.458;2023-10-08T00:13:08;11.20;99.90
7240;DHT22;3661;53.288;10.458;2023-10-08T00:15:42;11.20;99.90
7240;DHT22;3661;53.288;10.458;2023-10-08T00:18:23;11.20;99.90
7240;DHT22;3661;53.288;10.458;2023-10-08T00:20:56;11.20;99.90
7240;DHT22;3661;53.288;10.458;2023-10-08T00:23:29;11.20;99.90
7240;DHT22;3661;53.288;10.458;2023-10-08T00:26:02;11.20;99.90
7240;DHT22;3661;53.288;10.458;2023-10-08T00:28:37;11.20;99.90
7240;DHT22;3661;53.288;10.458;2023-10-08T00:31:14;11.20;99.90
7240;DHT22;3661;53.288;10.458;2023-10-08T00:33:48;11.20;99.90
7240;DHT22;3661;53.288;10.458;2023-10-08T00:36:20;11.20;99.90
7240;DHT22;3661;53.288;10.458;2023-10-08T00:38:52;11.20;99.90
7240;DHT22;3661;53.288;10.458;2023-10-08T00:41:29;11.20;99.90
7240;DHT22;3661;53.288;10.458;2023-10-08T00:44:07;11.20;99.90
7240;DHT22;3661;53.288;10.458;2023-10-08T00:46:44;11.10;99.90
7240;DHT22;3661;53.288;10.458;2023-10-08T00:49:22;11.10;99.90
7240;DHT22;3661;53.288;10.458;2023-10-08T00:52:08;11.10;99.90
7240;DHT22;3661;53.288;10.458;2023-10-08T00:55:00;11.10;99.90
7240;DHT22;3661;53.288;10.458;2023-10-08T00:57:45;11.10;99.90
7240;DHT22;3661;53.288;10.458;2023-10-08T01:00:19;11.10;99.90
7240;DHT22;3661;53.288;10.458;2023-10-08T01:03:06;11.10;99.90
7240;DHT22;3661;53.288;10.458;2023-10-08T01:05:46;11.10;99.90
7240;DHT22;3661;53.288;10.458;2023-10-08T01:08:19;11.10;99.90
7240;DHT22;3661;53.288;10.458;2023-10-08T01:11:24;11.10;99.90
7240;DHT22;3661;53.288;10.458;2023-10-08T01:14:13;11.10;99.90
7240;DHT22;3661;53.288;10.458;2023-10-08T01:16:45;11.00;99.90
7240;DHT22;3661;53.288;10.458;2023-10-08T01:19:19;11.00;99.90
7240;DHT22;3661;53.288;10.458;2023-10-08T01:21:52;11.10;99.90
7240;DHT22;3661;53.288;10.458;2023-10-08T01:24:26;11.00;99.90
7240;DHT22;3661;53.288;10.458;2023-10-08T01:27:01;11.00;99.90
7240;DHT22;3661;53.288;10.458;2023-10-08T01:29:39;11.00;99.90
7240;DHT22;3661;53.288;10.458;2023-10-08T01:32:14;11.10;99.90
7240;DHT22;3661;53.288;10.458;2023-10-08T01:34:47;11.00;99.90
7240;DHT22;3661;53.288;10.458;2023-10-08T01:37:19;11.00;99.90
7240;DHT22;3661;53.288;10.458;2023-10-08T01:39:53;11.00;99.90
7240;DHT22;3661;53.288;10.458;2023-10-08T01:42:31;11.00;99.90
7240;DHT22;3661;53.288;10.458;2023-10-08T01:45:09;11.00;99.90
7240;DHT22;3661;53.288;10.458;2023-10-08T01:47:50;11.00;99.90
7240;DHT22;3661;53.288;10.458;2023-10-08T01:50:24;11.00;99.90
7240;DHT22;3661;53.288;10.458;2023-10-08T01:52:56;11.00;99.90
7240;DHT22;3661;53.288;10.458;2023-10-08T01:55:33;11.00;99.90
7240;DHT22;3661;53.288;10.458;2023-10-08T01:58:16;11.00;99.90
7240;DHT22;3661;53.288;10.458;2023-10-08T02:00:53;11.00;99.90
7240;DHT22;3661;53.288;10.458;2023-10-08T02:03:30;11.00;99.90
7240;DHT22;3661;53.288;10.458;2023-10-08T02:06:05;11.00;99.90
7240;DHT22;3661;53.288;10.458;2023-10-08T02:08:40;11.00;99.90
7240;DHT22;3661;53.288;10.458;2023-10-08T02:11:14;11.00;99.90
7240;DHT22;3661;53.288;10.458;2023-10-08T02:13:47;11.00;99.90
7240;DHT22;3661;53.288;10.458;2023-10-08T02:16:19;10.90;99.90
7240;DHT22;3661;53.288;10.458;2023-10-08T02:18:53;10.90;99.90
7240;DHT22;3661;53.288;10.458;2023-10-08T02:21:26;10.90;99.90
7240;DHT22;3661;53.288;10.458;2023-10-08T02:23:58;10.90;99.90
7240;DHT22;3661;53.288;10.458;2023-10-08T02:26:36;10.90;99.90
7240;DHT22;3661;53.288;10.458;2023-10-08T02:29:09;10.90;99.90
7240;DHT22;3661;53.288;10.458;2023-10-08T02:31:42;10.90;99.90
7240;DHT22;3661;53.288;10.458;2023-10-08T02:34:15;10.90;99.90
7240;DHT22;3661;53.288;10.458;2023-10-08T02:36:48;10.90;99.90
7240;DHT22;3661;53.288;10.458;2023-10-08T02:39:20;10.90;99.90
7240;DHT22;3661;53.288;10.458;2023-10-08T02:41:58;10.90;99.90
7240;DHT22;3661;53.288;10.458;2023-10-08T02:44:30;10.90;99.90
7240;DHT22;3661;53.288;10.458;2023-10-08T02:47:03;10.90;99.90
7240;DHT22;3661;53.288;10.458;2023-10-08T02:49:38;10.90;99.90
7240;DHT22;3661;53.288;10.458;2023-10-08T02:52:12;10.90;99.90
7240;DHT22;3661;53.288;10.458;2023-10-08T02:54:44;10.90;99.90
7240;DHT22;3661;53.288;10.458;2023-10-08T02:57:24;10.90;99.90
7240;DHT22;3661;53.288;10.458;2023-10-08T03:00:02;10.80;99.90
7240;DHT22;3661;53.288;10.458;2023-10-08T03:02:43;10.90;99.90
7240;DHT22;3661;53.288;10.458;2023-10-08T03:05:17;10.80;99.90
7240;DHT22;3661;53.288;10.458;2023-10-08T03:07:50;10.80;99.90
7240;DHT22;3661;53.288;10.458;2023-10-08T03:10:22;10.80;99.90
7240;DHT22;3661;53.288;10.458;2023-10-08T03:13:04;10.80;99.90
7240;DHT22;3661;53.288;10.458;2023-10-08T03:15:40;10.80;99.90
7240;DHT22;3661;53.288;10.458;2023-10-08T03:18:17;10.80;99.90
7240;DHT22;3661;53.288;10.458;2023-10-08T03:20:51;10.80;99.90
7240;DHT22;3661;53.288;10.458;2023-10-08T03:23:24;10.80;99.90
7240;DHT22;3661;53.288;10.458;2023-10-08T03:26:04;10.80;99.90
7240;DHT22;3661;53.288;10.458;2023-10-08T03:28:43;10.80;99.90
7240;DHT22;3661;53.288;10.458;2023-10-08T03:31:15;10.80;99.90
7240;DHT22;3661;53.288;10.458;2023-10-08T03:33:50;10.80;99.90
7240;DHT22;3661;53.288;10.458;2023-10-08T03:36:22;10.80;99.90
7240;DHT22;3661;53.288;10.458;2023-10-08T03:39:04;10.80;99.90
7240;DHT22;3661;53.288;10.458;2023-10-08T03:41:43;10.80;99.90
7240;DHT22;3661;53.288;10.458;2023-10-08T03:44:30;10.80;99.90
7240;DHT22;3661;53.288;10.458;2023-10-08T03:47:02;10.80;99.90
7240;DHT22;3661;53.288;10.458;2023-10-08T03:49:41;10.80;99.90
7240;DHT22;3661;53.288;10.458;2023-10-08T03:52:16;10.80;99.90
7240;DHT22;3661;53.288;10.458;2023-10-08T03:54:49;10.80;99.90
7240;DHT22;3661;53.288;10.458;2023-10-08T03:57:35;10.70;99.90
7240;DHT22;3661;53.288;10.458;2023-10-08T04:00:16;10.70;99.90
7240;DHT22;3661;53.288;10.458;2023-10-08T04:02:49;10.70;99.90
7240;DHT22;3661;53.288;10.458;2023-10-08T04:05:29;10.70;99.90
7240;DHT22;3661;53.288;10.458;2023-10-08T04:08:15;10.70;99.90
7240;DHT22;3661;53.288;10.458;2023-10-08T04:10:55;10.70;99.90
7240;DHT22;3661;53.288;10.458;2023-10-08T04:13:50;10.70;99.90
7240;DHT22;3661;53.288;10.458;2023-10-08T04:16:27;10.70;99.90
7240;DHT22;3661;53.288;10.458;2023-10-08T04:19:01;10.70;99.90
7240;DHT22;3661;53.288;10.458;2023-10-08T04:21:34;10.70;99.90
7240;DHT22;3661;53.288;10.458;2023-10-08T04:24:08;10.70;99.90
7240;DHT22;3661;53.288;10.458;2023-10-08T04:26:41;10.70;99.90
7240;DHT22;3661;53.288;10.458;2023-10-08T04:29:14;10.60;99.90
7240;DHT22;3661;53.288;10.458;2023-10-08T04:31:54;10.60;99.90
7240;DHT22;3661;53.288;10.458;2023-10-08T04:34:38;10.60;99.90
7240;DHT22;3661;53.288;10.458;2023-10-08T04:37:17;10.60;99.90
7240;DHT22;3661;53.288;10.458;2023-10-08T04:39:51;10.60;99.90
7240;DHT22;3661;53.288;10.458;2023-10-08T04:42:29;10.60;99.90
7240;DHT22;3661;53.288;10.458;2023-10-08T04:45:05;10.60;99.90
7240;DHT22;3661;53.288;10.458;2023-10-08T04:47:44;10.60;99.90
7240;DHT22;3661;53.288;10.458;2023-10-08T04:50:20;10.60;99.90
7240;DHT22;3661;53.288;10.458;2023-10-08T04:53:00;10.60;99.90
7240;DHT22;3661;53.288;10.458;2023-10-08T04:55:39;10.60;99.90
7240;DHT22;3661;53.288;10.458;2023-10-08T04:58:19;10.60;99.90
7240;DHT22;3661;53.288;10.458;2023-10-08T05:01:03;10.60;99.90
7240;DHT22;3661;53.288;10.458;2023-10-08T05:03:52;10.60;99.90
7240;DHT22;3661;53.288;10.458;2023-10-08T05:06:54;10.50;99.90
7240;DHT22;3661;53.288;10.458;2023-10-08T05:09:48;10.50;99.90
7240;DHT22;3661;53.288;10.458;2023-10-08T05:12:35;10.50;99.90
7240;DHT22;3661;53.288;10.458;2023-10-08T05:15:16;10.50;99.90
7240;DHT22;3661;53.288;10.458;2023-10-08T05:18:04;10.50;99.90
7240;DHT22;3661;53.288;10.458;2023-10-08T05:20:55;10.50;99.90
7240;DHT22;3661;53.288;10.458;2023-10-08T05:23:30;10.50;99.90
7240;DHT22;3661;53.288;10.458;2023-10-08T05:26:24;10.50;99.90
7240;DHT22;3661;53.288;10.458;2023-10-08T05:29:13;10.50;99.90
7240;DHT22;3661;53.288;10.458;2023-10-08T05:32:17;10.50;99.90
7240;DHT22;3661;53.288;10.458;2023-10-08T05:35:16;10.50;99.90
7240;DHT22;3661;53.288;10.458;2023-10-08T05:38:07;10.40;99.90
7240;DHT22;3661;53.288;10.458;2023-10-08T05:40:46;10.40;99.90
7240;DHT22;3661;53.288;10.458;2023-10-08T05:43:37;10.40;99.90
7240;DHT22;3661;53.288;10.458;2023-10-08T05:46:26;10.40;99.90
7240;DHT22;3661;53.288;10.458;2023-10-08T05:49:10;10.40;99.90
7240;DHT22;3661;53.288;10.458;2023-10-08T05:51:56;10.40;99.90
7240;DHT22;3661;53.288;10.458;2023-10-08T05:54:44;10.40;99.90
7240;DHT22;3661;53.288;10.458;2023-10-08T05:57:39;10.30;99.90
7240;DHT22;3661;53.288;10.458;2023-10-08T06:00:12;10.30;99.90
7240;DHT22;3661;53.288;10.458;2023-10-08T06:03:07;10.30;99.90
7240;DHT22;3661;53.288;10.458;2023-10-08T06:05:52;10.30;99.90
7240;DHT22;3661;53.288;10.458;2023-10-08T06:08:44;10.30;99.90
7240;DHT22;3661;53.288;10.458;2023-10-08T06:11:39;10.30;99.90
7240;DHT22;3661;53.288;10.458;2023-10-08T06:14:26;10.30;99.90
7240;DHT22;3661;53.288;10.458;2023-10-08T06:17:14;10.30;99.90
7240;DHT22;3661;53.288;10.458;2023-10-08T06:19:54;10.20;99.90
7240;DHT22;3661;53.288;10.458;2023-10-08T06:22:28;10.20;99.90
7240;DHT22;3661;53.288;10.458;2023-10-08T06:25:04;10.20;99.90
7240;DHT22;3661;53.288;10.458;2023-10-08T06:27:50;10.20;99.90
7240;DHT22;3661;53.288;10.458;2023-10-08T06:30:26;10.20;99.90
7240;DHT22;3661;53.288;10.458;2023-10-08T06:33:00;10.20;99.90
7240;DHT22;3661;53.288;10.458;2023-10-08T06:35:34;10.20;99.90
7240;DHT22;3661;53.288;10.458;2023-10-08T06:38:06;10.20;99.90
7240;DHT22;3661;53.288;10.458;2023-10-08T06:40:40;10.10;99.90
7240;DHT22;3661;53.288;10.458;2023-10-08T06:43:14;10.10;99.90
7240;DHT22;3661;53.288;10.458;2023-10-08T06:45:47;10.10;99.90
7240;DHT22;3661;53.288;10.458;2023-10-08T06:48:23;10.10;99.90
7240;DHT22;3661;53.288;10.458;2023-10-08T06:50:56;10.10;99.90
7240;DHT22;3661;53.288;10.458;2023-10-08T06:53:28;10.10;99.90
7240;DHT22;3661;53.288;10.458;2023-10-08T06:56:00;10.10;99.90
7240;DHT22;3661;53.288;10.458;2023-10-08T06:58:36;10.10;99.90
7240;DHT22;3661;53.288;10.458;2023-10-08T07:01:09;10.10;99.90
7240;DHT22;3661;53.288;10.458;2023-10-08T07:03:43;10.10;99.90
7240;DHT22;3661;53.288;10.458;2023-10-08T07:06:17;10.10;99.90
7240;DHT22;3661;53.288;10.458;2023-10-08T07:08:56;10.10;99.90
7240;DHT22;3661;53.288;10.458;2023-10-08T07:11:30;10.10;99.90
7240;DHT22;3661;53.288;10.458;2023-10-08T07:14:06;10.10;99.90
7240;DHT22;3661;53.288;10.458;2023-10-08T07:16:41;10.10;99.90
7240;DHT22;3661;53.288;10.458;2023-10-08T07:19:15;10.20;99.90
7240;DHT22;3661;53.288;10.458;2023-10-08T07:21:48;10.20;99.90
7240;DHT22;3661;53.288;10.458;2023-10-08T07:24:25;10.20;99.90
7240;DHT22;3661;53.288;10.458;2023-10-08T07:27:01;10.20;99.90
7240;DHT22;3661;53.288;10.458;2023-10-08T07:29:40;10.20;99.90
7240;DHT22;3661;53.288;10.458;2023-10-08T07:32:17;10.30;99.90
7240;DHT22;3661;53.288;10.458;2023-10-08T07:34:52;10.30;99.90
7240;DHT22;3661;53.288;10.458;2023-10-08T07:37:42;10.30;99.90
7240;DHT22;3661;53.288;10.458;2023-10-08T07:40:15;10.40;99.90
7240;DHT22;3661;53.288;10.458;2023-10-08T07:42:47;10.40;99.90
7240;DHT22;3661;53.288;10.458;2023-10-08T07:45:23;10.50;99.90
7240;DHT22;3661;53.288;10.458;2023-10-08T07:47:55;10.50;99.90
7240;DHT22;3661;53.288;10.458;2023-10-08T07:50:28;10.60;99.90
7240;DHT22;3661;53.288;10.458;2023-10-08T07:53:00;10.60;99.90
7240;DHT22;3661;53.288;10.458;2023-10-08T07:55:35;10.70;99.90
7240;DHT22;3661;53.288;10.458;2023-10-08T07:58:07;10.70;99.90
7240;DHT22;3661;53.288;10.458;2023-10-08T08:00:42;10.80;99.90
7240;DHT22;3661;53.288;10.458;2023-10-08T08:03:22;10.90;99.90
7240;DHT22;3661;53.288;10.458;2023-10-08T08:05:55;11.00;99.90
7240;DHT22;3661;53.288;10.458;2023-10-08T08:08:27;11.00;99.90
7240;DHT22;3661;53.288;10.458;2023-10-08T08:10:59;11.00;99.90
7240;DHT22;3661;53.288;10.458;2023-10-08T08:13:36;11.10;99.90
7240;DHT22;3661;53.288;10.458;2023-10-08T08:16:10;11.20;99.90
7240;DHT22;3661;53.288;10.458;2023-10-08T08:18:49;11.20;99.90
7240;DHT22;3661;53.288;10.458;2023-10-08T08:21:22;11.40;99.90
7240;DHT22;3661;53.288;10.458;2023-10-08T08:23:56;11.40;99.90
7240;DHT22;3661;53.288;10.458;2023-10-08T08:26:36;11.50;99.90
7240;DHT22;3661;53.288;10.458;2023-10-08T08:29:15;11.60;99.90
7240;DHT22;3661;53.288;10.458;2023-10-08T08:31:48;11.70;99.90
7240;DHT22;3661;53.288;10.458;2023-10-08T08:34:24;11.80;99.90
7240;DHT22;3661;53.288;10.458;2023-10-08T08:36:56;11.80;99.90
7240;DHT22;3661;53.288;10.458;2023-10-08T08:39:28;11.90;99.90
7240;DHT22;3661;53.288;10.458;2023-10-08T08:42:03;12.00;99.90
7240;DHT22;3661;53.288;10.458;2023-10-08T08:44:38;12.10;99.90
7240;DHT22;3661;53.288;10.458;2023-10-08T08:47:20;12.20;99.90
7240;DHT22;3661;53.288;10.458;2023-10-08T08:49:57;12.30;99.90
7240;DHT22;3661;53.288;10.458;2023-10-08T08:52:39;12.40;99.90
7240;DHT22;3661;53.288;10.458;2023-10-08T08:55:11;12.50;99.90
7240;DHT22;3661;53.288;10.458;2023-10-08T08:57:47;12.60;99.90
7240;DHT22;3661;53.288;10.458;2023-10-08T09:00:20;12.70;99.90
7240;DHT22;3661;53.288;10.458;2023-10-08T09:02:58;12.80;99.90
7240;DHT22;3661;53.288;10.458;2023-10-08T09:05:30;12.90;99.90
7240;DHT22;3661;53.288;10.458;2023-10-08T09:08:18;12.90;99.90
7240;DHT22;3661;53.288;10.458;2023-10-08T09:10:52;13.00;99.90
7240;DHT22;3661;53.288;10.458;2023-10-08T09:13:24;13.10;99.90
7240;DHT22;3661;53.288;10.458;2023-10-08T09:15:57;13.20;99.90
7240;DHT22;3661;53.288;10.458;2023-10-08T09:18:38;13.30;99.90
7240;DHT22;3661;53.288;10.458;2023-10-08T09:21:15;13.50;99.90
7240;DHT22;3661;53.288;10.458;2023-10-08T09:23:50;13.60;99.90
7240;DHT22;3661;53.288;10.458;2023-10-08T09:26:23;13.70;99.90
7240;DHT22;3661;53.288;10.458;2023-10-08T09:28:56;13.70;99.90
7240;DHT22;3661;53.288;10.458;2023-10-08T09:31:28;13.80;99.90
7240;DHT22;3661;53.288;10.458;2023-10-08T09:34:07;13.90;99.90
7240;DHT22;3661;53.288;10.458;2023-10-08T09:36:39;14.00;99.90
7240;DHT22;3661;53.288;10.458;2023-10-08T09:39:15;14.10;99.90
7240;DHT22;3661;53.288;10.458;2023-10-08T09:41:54;14.20;99.90
7240;DHT22;3661;53.288;10.458;2023-10-08T09:44:26;14.30;99.90
7240;DHT22;3661;53.288;10.458;2023-10-08T09:47:02;14.30;99.90
7240;DHT22;3661;53.288;10.458;2023-10-08T09:49:39;14.50;99.90
7240;DHT22;3661;53.288;10.458;2023-10-08T09:52:16;14.60;99.90
7240;DHT22;3661;53.288;10.458;2023-10-08T09:54:52;14.60;99.90
7240;DHT22;3661;53.288;10.458;2023-10-08T09:57:27;14.70;99.90
7240;DHT22;3661;53.288;10.458;2023-10-08T09:59:59;14.90;99.90
7240;DHT22;3661;53.288;10.458;2023-10-08T10:02:32;15.00;99.90
7240;DHT22;3661;53.288;10.458;2023-10-08T10:05:10;15.00;99.90
7240;DHT22;3661;53.288;10.458;2023-10-08T10:07:43;15.10;99.90
7240;DHT22;3661;53.288;10.458;2023-10-08T10:10:28;15.20;99.90
7240;DHT22;3661;53.288;10.458;2023-10-08T10:13:03;15.30;99.90
7240;DHT22;3661;53.288;10.458;2023-10-08T10:15:37;15.40;99.90
7240;DHT22;3661;53.288;10.458;2023-10-08T10:18:09;15.40;99.90
7240;DHT22;3661;53.288;10.458;2023-10-08T10:20:52;15.50;99.90
7240;DHT22;3661;53.288;10.458;2023-10-08T10:23:36;15.50;99.90
7240;DHT22;3661;53.288;10.458;2023-10-08T10:26:23;15.50;99.90
7240;DHT22;3661;53.288;10.458;2023-10-08T10:29:20;15.60;99.90
7240;DHT22;3661;53.288;10.458;2023-10-08T10:31:54;15.70;99.90
7240;DHT22;3661;53.288;10.458;2023-10-08T10:34:28;15.70;99.90
7240;DHT22;3661;53.288;10.458;2023-10-08T10:37:02;15.80;99.90
7240;DHT22;3661;53.288;10.458;2023-10-08T10:39:39;15.90;99.90
7240;DHT22;3661;53.288;10.458;2023-10-08T10:42:12;15.90;99.90
7240;DHT22;3661;53.288;10.458;2023-10-08T10:44:52;16.00;99.90
7240;DHT22;3661;53.288;10.458;2023-10-08T10:47:26;16.00;99.90
7240;DHT22;3661;53.288;10.458;2023-10-08T10:49:57;16.00;99.90
7240;DHT22;3661;53.288;10.458;2023-10-08T10:52:44;16.10;99.90
7240;DHT22;3661;53.288;10.458;2023-10-08T10:55:22;16.10;99.90
7240;DHT22;3661;53.288;10.458;2023-10-08T10:58:02;16.20;99.90
7240;DHT22;3661;53.288;10.458;2023-10-08T11:00:41;16.20;99.90
7240;DHT22;3661;53.288;10.458;2023-10-08T11:03:19;16.30;99.90
7240;DHT22;3661;53.288;10.458;2023-10-08T11:05:58;16.30;99.90
7240;DHT22;3661;53.288;10.458;2023-10-08T11:08:38;16.30;99.90
7240;DHT22;3661;53.288;10.458;2023-10-08T11:11:17;16.40;99.90
7240;DHT22;3661;53.288;10.458;2023-10-08T11:13:49;16.40;99.90
7240;DHT22;3661;53.288;10.458;2023-10-08T11:16:24;16.40;99.90
7240;DHT22;3661;53.288;10.458;2023-10-08T11:18:57;16.50;99.90
7240;DHT22;3661;53.288;10.458;2023-10-08T11:21:32;16.50;99.90
7240;DHT22;3661;53.288;10.458;2023-10-08T11:24:09;16.50;99.90
7240;DHT22;3661;53.288;10.458;2023-10-08T11:26:44;16.60;99.90
7240;DHT22;3661;53.288;10.458;2023-10-08T11:29:32;16.60;99.90
7240;DHT22;3661;53.288;10.458;2023-10-08T11:32:09;16.60;99.90
7240;DHT22;3661;53.288;10.458;2023-10-08T11:34:45;16.60;99.90
7240;DHT22;3661;53.288;10.458;2023-10-08T11:37:27;16.60;99.90
7240;DHT22;3661;53.288;10.458;2023-10-08T11:40:00;16.60;99.90
7240;DHT22;3661;53.288;10.458;2023-10-08T11:42:40;16.60;99.90
7240;DHT22;3661;53.288;10.458;2023-10-08T11:45:14;16.60;99.90
7240;DHT22;3661;53.288;10.458;2023-10-08T11:47:50;16.60;99.90
7240;DHT22;3661;53.288;10.458;2023-10-08T11:50:26;16.60;99.90
7240;DHT22;3661;53.288;10.458;2023-10-08T11:53:05;16.60;99.90
7240;DHT22;3661;53.288;10.458;2023-10-08T11:55:39;16.50;99.90
7240;DHT22;3661;53.288;10.458;2023-10-08T11:58:13;16.50;99.90
7240;DHT22;3661;53.288;10.458;2023-10-08T12:00:48;16.50;99.90
7240;DHT22;3661;53.288;10.458;2023-10-08T12:03:23;16.50;99.90
7240;DHT22;3661;53.288;10.458;2023-10-08T12:05:57;16.50;99.90
7240;DHT22;3661;53.288;10.458;2023-10-08T12:08:30;16.50;99.90
7240;DHT22;3661;53.288;10.458;2023-10-08T12:11:12;16.50;99.90
7240;DHT22;3661;53.288;10.458;2023-10-08T12:13:44;16.50;99.90
7240;DHT22;3661;53.288;10.458;2023-10-08T12:16:17;16.50;99.90
7240;DHT22;3661;53.288;10.458;2023-10-08T12:18:53;16.50;99.90
7240;DHT22;3661;53.288;10.458;2023-10-08T12:21:29;16.60;99.90
7240;DHT22;3661;53.288;10.458;2023-10-08T12:24:03;16.60;99.90
7240;DHT22;3661;53.288;10.458;2023-10-08T12:26:38;16.60;99.90
7240;DHT22;3661;53.288;10.458;2023-10-08T12:29:13;16.60;99.90
7240;DHT22;3661;53.288;10.458;2023-10-08T12:31:47;16.60;99.90
7240;DHT22;3661;53.288;10.458;2023-10-08T12:34:19;16.60;99.90
7240;DHT22;3661;53.288;10.458;2023-10-08T12:36:53;16.70;99.90
7240;DHT22;3661;53.288;10.458;2023-10-08T12:39:25;16.70;99.90
7240;DHT22;3661;53.288;10.458;2023-10-08T12:42:00;16.60;99.90
7240;DHT22;3661;53.288;10.458;2023-10-08T12:44:35;16.60;99.90
7240;DHT22;3661;53.288;10.458;2023-10-08T12:47:07;16.60;99.90
7240;DHT22;3661;53.288;10.458;2023-10-08T12:49:39;16.60;99.90
7240;DHT22;3661;53.288;10.458;2023-10-08T12:52:11;16.60;99.90
7240;DHT22;3661;53.288;10.458;2023-10-08T12:54:45;16.60;99.90
7240;DHT22;3661;53.288;10.458;2023-10-08T12:57:18;16.60;99.90
7240;DHT22;3661;53.288;10.458;2023-10-08T12:59:50;16.60;99.90
7240;DHT22;3661;53.288;10.458;2023-10-08T13:02:22;16.60;99.90
7240;DHT22;3661;53.288;10.458;2023-10-08T13:04:58;16.50;99.90
7240;DHT22;3661;53.288;10.458;2023-10-08T13:07:31;16.50;99.90
7240;DHT22;3661;53.288;10.458;2023-10-08T13:10:10;16.40;99.90
7240;DHT22;3661;53.288;10.458;2023-10-08T13:12:46;16.30;99.90
7240;DHT22;3661;53.288;10.458;2023-10-08T13:15:19;16.20;99.90
7240;DHT22;3661;53.288;10.458;2023-10-08T13:17:55;16.20;99.90
7240;DHT22;3661;53.288;10.458;2023-10-08T13:20:27;16.10;99.90
7240;DHT22;3661;53.288;10.458;2023-10-08T13:23:04;16.10;99.90
7240;DHT22;3661;53.288;10.458;2023-10-08T13:25:36;16.10;99.90
7240;DHT22;3661;53.288;10.458;2023-10-08T13:28:11;16.00;99.90
7240;DHT22;3661;53.288;10.458;2023-10-08T13:30:43;16.00;99.90
7240;DHT22;3661;53.288;10.458;2023-10-08T13:33:15;16.00;99.90
7240;DHT22;3661;53.288;10.458;2023-10-08T13:35:48;16.00;99.90
7240;DHT22;3661;53.288;10.458;2023-10-08T13:38:21;16.00;99.90
7240;DHT22;3661;53.288;10.458;2023-10-08T13:40:54;16.00;99.90
7240;DHT22;3661;53.288;10.458;2023-10-08T13:43:45;15.90;99.90
7240;DHT22;3661;53.288;10.458;2023-10-08T13:46:18;15.90;99.90
7240;DHT22;3661;53.288;10.458;2023-10-08T13:48:53;15.90;99.90
7240;DHT22;3661;53.288;10.458;2023-10-08T13:51:27;15.90;99.90
7240;DHT22;3661;53.288;10.458;2023-10-08T13:53:59;15.80;99.90
7240;DHT22;3661;53.288;10.458;2023-10-08T13:56:31;15.90;99.90
7240;DHT22;3661;53.288;10.458;2023-10-08T13:59:05;15.90;99.90
7240;DHT22;3661;53.288;10.458;2023-10-08T14:01:43;15.80;99.90
7240;DHT22;3661;53.288;10.458;2023-10-08T14:04:17;15.90;99.90
7240;DHT22;3661;53.288;10.458;2023-10-08T14:06:50;15.80;99.90
7240;DHT22;3661;53.288;10.458;2023-10-08T14:09:23;15.80;99.90
7240;DHT22;3661;53.288;10.458;2023-10-08T14:12:07;15.80;99.90
7240;DHT22;3661;53.288;10.458;2023-10-08T14:14:42;15.80;99.90
7240;DHT22;3661;53.288;10.458;2023-10-08T14:17:16;15.80;99.90
7240;DHT22;3661;53.288;10.458;2023-10-08T14:20:10;15.80;99.90
7240;DHT22;3661;53.288;10.458;2023-10-08T14:22:44;15.80;99.90
7240;DHT22;3661;53.288;10.458;2023-10-08T14:25:18;15.70;99.90
7240;DHT22;3661;53.288;10.458;2023-10-08T14:27:54;15.70;99.90
7240;DHT22;3661;53.288;10.458;2023-10-08T14:30:36;15.70;99.90
7240;DHT22;3661;53.288;10.458;2023-10-08T14:33:12;15.60;99.90
7240;DHT22;3661;53.288;10.458;2023-10-08T14:35:54;15.60;99.90
7240;DHT22;3661;53.288;10.458;2023-10-08T14:38:44;15.60;99.90
7240;DHT22;3661;53.288;10.458;2023-10-08T14:41:33;15.50;99.90
7240;DHT22;3661;53.288;10.458;2023-10-08T14:44:22;15.50;99.90
7240;DHT22;3661;53.288;10.458;2023-10-08T14:46:57;15.50;99.90
7240;DHT22;3661;53.288;10.458;2023-10-08T14:49:29;15.50;99.90
7240;DHT22;3661;53.288;10.458;2023-10-08T14:52:01;15.40;99.90
7240;DHT22;3661;53.288;10.458;2023-10-08T14:54:35;15.40;99.90
7240;DHT22;3661;53.288;10.458;2023-10-08T14:57:08;15.40;99.90
7240;DHT22;3661;53.288;10.458;2023-10-08T14:59:43;15.30;99.90
7240;DHT22;3661;53.288;10.458;2023-10-08T15:02:16;15.30;99.90
7240;DHT22;3661;53.288;10.458;2023-10-08T15:04:52;15.30;99.90
7240;DHT22;3661;53.288;10.458;2023-10-08T15:07:24;15.20;99.90
7240;DHT22;3661;53.288;10.458;2023-10-08T15:09:56;15.20;99.90
7240;DHT22;3661;53.288;10.458;2023-10-08T15:12:28;15.20;99.90
7240;DHT22;3661;53.288;10.458;2023-10-08T15:15:06;15.10;99.90
7240;DHT22;3661;53.288;10.458;2023-10-08T15:17:45;15.10;99.90
7240;DHT22;3661;53.288;10.458;2023-10-08T15:20:19;15.10;99.90
7240;DHT22;3661;53.288;10.458;2023-10-08T15:22:53;15.00;99.90
7240;DHT22;3661;53.288;10.458;2023-10-08T15:25:25;15.00;99.90
7240;DHT22;3661;53.288;10.458;2023-10-08T15:27:57;15.00;99.90
7240;DHT22;3661;53.288;10.458;2023-10-08T15:30:30;14.90;99.90
7240;DHT22;3661;53.288;10.458;2023-10-08T15:33:05;14.90;99.90
7240;DHT22;3661;53.288;10.458;2023-10-08T15:35:37;14.80;99.90
7240;DHT22;3661;53.288;10.458;2023-10-08T15:38:11;14.80;99.90
7240;DHT22;3661;53.288;10.458;2023-10-08T15:40:43;14.80;99.90
7240;DHT22;3661;53.288;10.458;2023-10-08T15:43:15;14.80;99.90
7240;DHT22;3661;53.288;10.458;2023-10-08T15:45:48;14.70;99.90
7240;DHT22;3661;53.288;10.458;2023-10-08T15:48:22;14.70;99.90
7240;DHT22;3661;53.288;10.458;2023-10-08T15:50:55;14.60;99.90
7240;DHT22;3661;53.288;10.458;2023-10-08T15:53:27;14.60;99.90
7240;DHT22;3661;53.288;10.458;2023-10-08T15:56:01;14.50;99.90
7240;DHT22;3661;53.288;10.458;2023-10-08T15:58:33;14.50;99.90
7240;DHT22;3661;53.288;10.458;2023-10-08T16:01:05;14.50;99.90
7240;DHT22;3661;53.288;10.458;2023-10-08T16:03:39;14.40;99.90
7240;DHT22;3661;53.288;10.458;2023-10-08T16:06:14;14.40;99.90
7240;DHT22;3661;53.288;10.458;2023-10-08T16:08:49;14.30;99.90
7240;DHT22;3661;53.288;10.458;2023-10-08T16:11:21;14.30;99.90
7240;DHT22;3661;53.288;10.458;2023-10-08T16:13:57;14.30;99.90
7240;DHT22;3661;53.288;10.458;2023-10-08T16:16:29;14.20;99.90
7240;DHT22;3661;53.288;10.458;2023-10-08T16:19:03;14.20;99.90
7240;DHT22;3661;53.288;10.458;2023-10-08T16:21:38;14.10;99.90
7240;DHT22;3661;53.288;10.458;2023-10-08T16:24:18;14.10;99.90
7240;DHT22;3661;53.288;10.458;2023-10-08T16:26:53;14.10;99.90
7240;DHT22;3661;53.288;10.458;2023-10-08T16:29:25;14.00;99.90
7240;DHT22;3661;53.288;10.458;2023-10-08T16:32:02;14.00;99.90
7240;DHT22;3661;53.288;10.458;2023-10-08T16:37:57;13.80;99.90
7240;DHT22;3661;53.288;10.458;2023-10-08T16:40:30;13.70;99.90
7240;DHT22;3661;53.288;10.458;2023-10-08T16:43:04;13.70;99.90
7240;DHT22;3661;53.288;10.458;2023-10-08T16:45:42;13.60;99.90
7240;DHT22;3661;53.288;10.458;2023-10-08T16:48:15;13.60;99.90